Time;durP1;ratioP1;P1;durP2;ratioP2;P2;SDS_P1;SDS_P2;PMS_P1;PMS_P2;Temp;Humidity;BMP_temperature;BMP_pressure;BME280_temperature;BME280_humidity;BME280_pressure;Samples;Min_cycle;Max_cycle;Signal;HPM_P1;HPM_P2
2024/01/27 00:00:01;;;;;;;4.15;0.93;;;;;;;;;;5089990;28;20574;-83
2024/01/27 00:02:27;;;;;;;8.27;1.65;;;;;;;;;;5073145;28;20040;-84
2024/01/27 00:04:53;;;;;;;6.57;1.40;;;;;;;;;;5089967;28;20148;-83
2024/01/27 00:07:19;;;;;;;7.30;1.40;;;;;;;;;;5089389;28;20584;-83
2024/01/27 00:09:45;;;;;;;12.43;2.72;;;;;;;;;;5087419;28;20063;-83
2024/01/27 00:12:11;;;;;;;6.88;1.13;;;;;;;;;;5092713;28;20051;-83
2024/01/27 00:14:38;;;;;;;3.17;1.35;;;;;;;;;;5092278;28;20040;-83
2024/01/27 00:17:04;;;;;;;8.68;1.63;;;;;;;;;;5095161;28;20032;-83
2024/01/27 00:19:30;;;;;;;10.40;1.75;;;;;;;;;;5094126;28;20051;-83
2024/01/27 00:21:58;;;;;;;8.43;1.48;;;;;;;;;;5103187;28;20135;-83
2024/01/27 00:24:24;;;;;;;4.15;1.50;;;;;;;;;;5092100;28;20054;-83
2024/01/27 00:26:50;;;;;;;6.50;1.50;;;;;;;;;;5088921;28;20119;-84
2024/01/27 00:29:16;;;;;;;2.67;1.13;;;;;;;;;;5089902;28;20096;-84
2024/01/27 00:31:42;;;;;;;4.65;1.48;;;;;;;;;;5088508;28;20036;-83
2024/01/27 00:34:08;;;;;;;6.93;1.75;;;;;;;;;;5087809;28;20092;-84
2024/01/27 00:36:36;;;;;;;6.85;1.20;;;;;;;;;;5071770;28;20119;-84
2024/01/27 00:39:03;;;;;;;12.35;2.15;;;;;;;;;;5071590;28;20031;-84
2024/01/27 00:41:29;;;;;;;8.18;1.60;;;;;;;;;;5089121;28;20055;-83
2024/01/27 00:43:55;;;;;;;3.15;0.73;;;;;;;;;;5087784;28;20036;-83
2024/01/27 00:46:21;;;;;;;2.90;0.85;;;;;;;;;;5089455;28;20748;-83
2024/01/27 00:48:47;;;;;;;2.33;0.52;;;;;;;;;;5070890;28;20036;-83
2024/01/27 00:51:14;;;;;;;5.28;1.50;;;;;;;;;;5087298;28;20040;-83
2024/01/27 00:53:41;;;;;;;4.43;1.42;;;;;;;;;;5086283;28;20073;-83
2024/01/27 00:56:07;;;;;;;9.38;2.05;;;;;;;;;;5089386;28;20416;-84
2024/01/27 00:58:33;;;;;;;5.40;1.48;;;;;;;;;;5071464;28;20044;-84
2024/01/27 01:00:59;;;;;;;3.63;0.60;;;;;;;;;;5087661;28;20120;-83
2024/01/27 01:03:25;;;;;;;6.40;2.08;;;;;;;;;;5086112;28;20037;-83
2024/01/27 01:05:51;;;;;;;7.65;1.80;;;;;;;;;;5088314;28;20114;-83
2024/01/27 01:08:17;;;;;;;5.13;0.88;;;;;;;;;;5088324;28;20044;-83
2024/01/27 01:10:44;;;;;;;7.72;1.75;;;;;;;;;;5087346;28;20456;-83
2024/01/27 01:13:10;;;;;;;3.47;2.03;;;;;;;;;;5087863;28;20114;-83
2024/01/27 01:15:36;;;;;;;5.47;1.30;;;;;;;;;;5088275;28;20044;-82
2024/01/27 01:18:02;;;;;;;1.10;0.43;;;;;;;;;;5087915;28;20048;-83
2024/01/27 01:20:29;;;;;;;5.13;1.73;;;;;;;;;;5087588;28;20024;-83
2024/01/27 01:22:55;;;;;;;3.97;0.88;;;;;;;;;;5119964;27;20072;-84
2024/01/27 01:25:21;;;;;;;2.85;0.95;;;;;;;;;;5088474;28;20075;-83
2024/01/27 01:27:49;;;;;;;4.90;1.30;;;;;;;;;;5086478;28;20067;-84
2024/01/27 01:30:15;;;;;;;6.43;1.77;;;;;;;;;;5086469;28;20048;-83
2024/01/27 01:32:41;;;;;;;6.45;1.73;;;;;;;;;;5087684;28;20043;-83
2024/01/27 01:35:07;;;;;;;10.18;2.20;;;;;;;;;;5070447;28;20496;-83
2024/01/27 01:37:33;;;;;;;13.13;2.53;;;;;;;;;;5086698;28;20040;-84
2024/01/27 01:39:59;;;;;;;7.47;1.70;;;;;;;;;;5087087;28;20066;-83
2024/01/27 01:42:25;;;;;;;6.00;1.73;;;;;;;;;;5088400;28;20044;-84
2024/01/27 01:44:54;;;;;;;8.82;1.25;;;;;;;;;;5086231;28;20071;-83
2024/01/27 01:47:22;;;;;;;4.47;1.63;;;;;;;;;;5087154;28;20065;-83
2024/01/27 01:49:48;;;;;;;5.43;1.83;;;;;;;;;;5087894;28;20472;-83
2024/01/27 01:52:20;;;;;;;9.63;1.50;;;;;;;;;;5074740;28;20125;-84
2024/01/27 01:54:50;;;;;;;3.22;1.13;;;;;;;;;;5086446;28;20039;-83
2024/01/27 01:57:16;;;;;;;3.05;0.82;;;;;;;;;;5088177;28;20050;-83
2024/01/27 01:59:42;;;;;;;6.10;1.63;;;;;;;;;;5069124;28;20036;-83
2024/01/27 02:02:09;;;;;;;6.68;1.27;;;;;;;;;;5071894;28;20044;-83
2024/01/27 02:04:45;;;;;;;7.72;1.55;;;;;;;;;;5070173;28;20036;-83
2024/01/27 02:07:11;;;;;;;6.13;1.30;;;;;;;;;;5088330;28;20044;-83
2024/01/27 02:09:38;;;;;;;3.45;0.43;;;;;;;;;;5084519;28;20543;-83
2024/01/27 02:12:04;;;;;;;3.83;1.30;;;;;;;;;;5071658;28;20542;-84
2024/01/27 02:14:30;;;;;;;11.15;1.95;;;;;;;;;;5068880;28;20048;-83
2024/01/27 02:16:57;;;;;;;3.78;1.50;;;;;;;;;;5087036;28;20589;-83
2024/01/27 02:19:23;;;;;;;4.47;1.40;;;;;;;;;;5087094;28;20036;-83
2024/01/27 02:21:49;;;;;;;6.97;1.42;;;;;;;;;;5087311;28;20143;-84
2024/01/27 02:24:15;;;;;;;8.25;1.38;;;;;;;;;;5086528;28;20131;-84
2024/01/27 02:26:41;;;;;;;4.70;1.60;;;;;;;;;;5070047;28;20040;-83
2024/01/27 02:29:07;;;;;;;5.78;1.55;;;;;;;;;;5086197;28;20060;-83
2024/01/27 02:31:33;;;;;;;3.30;1.48;;;;;;;;;;5069940;28;20036;-83
2024/01/27 02:33:59;;;;;;;4.05;1.77;;;;;;;;;;5074373;28;20059;-84
2024/01/27 02:36:25;;;;;;;7.32;1.80;;;;;;;;;;5089144;28;20039;-83
2024/01/27 02:38:51;;;;;;;5.22;1.10;;;;;;;;;;5072944;28;20039;-84
2024/01/27 02:41:17;;;;;;;5.95;1.58;;;;;;;;;;5087250;28;20457;-83
2024/01/27 02:43:43;;;;;;;3.28;1.60;;;;;;;;;;5087899;28;20033;-83
2024/01/27 02:46:11;;;;;;;5.25;1.48;;;;;;;;;;5091623;28;20044;-83
2024/01/27 02:48:37;;;;;;;6.15;0.82;;;;;;;;;;5089836;28;20397;-83
2024/01/27 02:51:03;;;;;;;4.65;1.08;;;;;;;;;;5073578;28;20032;-84
2024/01/27 02:53:30;;;;;;;1.40;0.57;;;;;;;;;;5090019;28;20474;-83
2024/01/27 02:55:56;;;;;;;3.58;1.30;;;;;;;;;;5075362;28;20047;-83
2024/01/27 02:58:22;;;;;;;6.25;1.38;;;;;;;;;;5091631;28;20040;-84
2024/01/27 03:00:48;;;;;;;6.85;1.38;;;;;;;;;;5090343;28;20048;-83
2024/01/27 03:03:15;;;;;;;7.38;2.28;;;;;;;;;;5087428;28;20046;-83
2024/01/27 03:05:41;;;;;;;10.95;2.15;;;;;;;;;;5072271;28;20048;-83
2024/01/27 03:08:07;;;;;;;5.25;2.28;;;;;;;;;;5078029;28;20119;-83
2024/01/27 03:10:33;;;;;;;2.53;1.02;;;;;;;;;;5092753;28;20032;-84
2024/01/27 03:12:59;;;;;;;4.40;1.02;;;;;;;;;;5079400;28;20044;-83
2024/01/27 03:15:25;;;;;;;6.95;2.03;;;;;;;;;;5101903;28;20051;-83
2024/01/27 03:17:51;;;;;;;11.35;2.00;;;;;;;;;;5104409;28;20071;-84
2024/01/27 03:20:17;;;;;;;7.75;2.42;;;;;;;;;;5109587;28;20040;-83
2024/01/27 03:22:43;;;;;;;4.00;1.10;;;;;;;;;;5093291;28;20119;-83
2024/01/27 03:25:13;;;;;;;4.13;1.05;;;;;;;;;;5072974;28;20040;-83
2024/01/27 03:27:39;;;;;;;7.05;1.60;;;;;;;;;;5073198;28;20090;-84
2024/01/27 03:30:05;;;;;;;7.95;1.80;;;;;;;;;;5088824;28;20035;-83
2024/01/27 03:32:31;;;;;;;3.70;1.30;;;;;;;;;;5071095;28;20485;-84
2024/01/27 03:34:58;;;;;;;5.25;1.73;;;;;;;;;;5089543;28;20032;-83
2024/01/27 03:37:24;;;;;;;3.40;1.65;;;;;;;;;;5074562;28;20040;-84
2024/01/27 03:39:50;;;;;;;5.22;1.75;;;;;;;;;;5089669;28;20040;-83
2024/01/27 03:42:16;;;;;;;8.27;1.90;;;;;;;;;;5091206;28;20378;-83
2024/01/27 03:44:42;;;;;;;9.10;2.00;;;;;;;;;;5087222;28;20144;-83
2024/01/27 03:47:08;;;;;;;3.75;1.60;;;;;;;;;;5095207;28;20500;-83
2024/01/27 03:49:34;;;;;;;6.32;2.40;;;;;;;;;;5096284;28;20098;-83
2024/01/27 03:52:00;;;;;;;5.22;1.90;;;;;;;;;;5097465;28;20435;-83
2024/01/27 03:54:26;;;;;;;3.85;1.58;;;;;;;;;;5093393;28;20104;-84
2024/01/27 03:56:52;;;;;;;3.10;0.63;;;;;;;;;;5091356;28;20040;-83
2024/01/27 03:59:18;;;;;;;6.35;1.77;;;;;;;;;;5072489;28;20044;-83
2024/01/27 04:01:44;;;;;;;2.47;0.80;;;;;;;;;;5091488;28;20046;-83
2024/01/27 04:04:11;;;;;;;4.30;1.13;;;;;;;;;;5090738;28;20465;-83
2024/01/27 04:06:38;;;;;;;7.57;1.92;;;;;;;;;;5089462;28;20404;-82
2024/01/27 04:09:04;;;;;;;5.60;2.75;;;;;;;;;;5091069;28;20055;-83
2024/01/27 04:11:30;;;;;;;5.15;1.50;;;;;;;;;;5075946;28;20063;-83
2024/01/27 04:13:56;;;;;;;6.88;2.28;;;;;;;;;;5089529;28;20044;-83
2024/01/27 04:16:22;;;;;;;4.68;1.67;;;;;;;;;;5088654;28;20103;-83
2024/01/27 04:18:48;;;;;;;5.95;2.13;;;;;;;;;;5088683;28;20044;-83
2024/01/27 04:21:14;;;;;;;6.65;1.38;;;;;;;;;;5089876;28;20520;-83
2024/01/27 04:23:40;;;;;;;2.83;1.10;;;;;;;;;;5086920;28;20036;-83
2024/01/27 04:26:06;;;;;;;4.65;1.15;;;;;;;;;;5072773;28;20036;-83
2024/01/27 04:28:32;;;;;;;7.63;3.95;;;;;;;;;;5087987;28;20492;-83
2024/01/27 04:30:58;;;;;;;3.42;1.00;;;;;;;;;;5089671;28;20127;-83
2024/01/27 04:33:24;;;;;;;7.78;1.58;;;;;;;;;;5088864;28;20044;-83
2024/01/27 04:35:50;;;;;;;1.98;1.13;;;;;;;;;;5071223;28;20036;-83
2024/01/27 04:38:16;;;;;;;4.15;1.63;;;;;;;;;;5071032;28;20043;-83
2024/01/27 04:40:42;;;;;;;5.40;1.33;;;;;;;;;;5088759;28;20135;-83
2024/01/27 04:43:08;;;;;;;5.00;1.10;;;;;;;;;;5088303;28;20040;-83
2024/01/27 04:45:34;;;;;;;7.85;1.92;;;;;;;;;;5072409;28;20044;-83
2024/01/27 04:48:01;;;;;;;5.88;1.65;;;;;;;;;;5089379;28;20130;-83
2024/01/27 04:50:27;;;;;;;6.82;1.95;;;;;;;;;;5072744;28;20051;-83
2024/01/27 04:52:53;;;;;;;9.35;2.30;;;;;;;;;;5091122;28;20036;-82
2024/01/27 04:55:19;;;;;;;3.13;0.80;;;;;;;;;;5086798;28;20036;-83
2024/01/27 04:57:45;;;;;;;5.30;1.42;;;;;;;;;;5089840;28;20040;-83
2024/01/27 05:00:12;;;;;;;7.35;1.98;;;;;;;;;;5070660;28;20044;-83
2024/01/27 05:02:42;;;;;;;12.55;2.00;;;;;;;;;;5087656;28;20040;-83
2024/01/27 05:05:08;;;;;;;6.00;1.70;;;;;;;;;;5089942;28;20468;-83
2024/01/27 05:07:34;;;;;;;8.40;1.50;;;;;;;;;;5086386;28;20044;-83
2024/01/27 05:10:00;;;;;;;7.93;2.42;;;;;;;;;;5071389;28;20549;-83
2024/01/27 05:12:26;;;;;;;4.97;1.60;;;;;;;;;;5072998;28;20047;-83
2024/01/27 05:14:52;;;;;;;5.60;1.50;;;;;;;;;;5089427;28;20075;-83
2024/01/27 05:17:18;;;;;;;4.82;1.33;;;;;;;;;;5086362;28;20068;-83
2024/01/27 05:19:44;;;;;;;2.63;1.52;;;;;;;;;;5088492;28;20044;-83
2024/01/27 05:22:10;;;;;;;7.10;1.88;;;;;;;;;;5088721;28;20040;-83
2024/01/27 05:24:36;;;;;;;6.05;1.60;;;;;;;;;;5073251;28;20519;-83
2024/01/27 05:27:02;;;;;;;10.65;2.15;;;;;;;;;;5071746;28;20066;-83
2024/01/27 05:29:28;;;;;;;4.13;1.42;;;;;;;;;;5088270;28;20130;-83
2024/01/27 05:31:54;;;;;;;6.70;1.73;;;;;;;;;;5087472;28;20496;-83
2024/01/27 05:34:20;;;;;;;7.88;1.90;;;;;;;;;;5069425;28;20043;-83
2024/01/27 05:36:47;;;;;;;6.00;1.60;;;;;;;;;;5070260;28;20043;-83
2024/01/27 05:39:14;;;;;;;8.52;1.85;;;;;;;;;;5088985;28;20036;-83
2024/01/27 05:41:40;;;;;;;9.13;1.38;;;;;;;;;;5085787;28;20092;-83
2024/01/27 05:44:06;;;;;;;6.38;2.65;;;;;;;;;;5073583;28;20036;-83
2024/01/27 05:46:32;;;;;;;6.95;1.77;;;;;;;;;;5071444;28;20043;-83
2024/01/27 05:49:02;;;;;;;5.22;1.52;;;;;;;;;;5083815;28;20120;-83
2024/01/27 05:51:30;;;;;;;4.13;1.92;;;;;;;;;;5087702;28;20480;-83
2024/01/27 05:53:55;;;;;;;1.70;1.25;;;;;;;;;;5089883;28;20079;-83
2024/01/27 05:56:22;;;;;;;3.28;1.83;;;;;;;;;;5086489;28;20115;-83
2024/01/27 05:58:48;;;;;;;10.40;2.85;;;;;;;;;;5089414;28;20090;-83
2024/01/27 06:01:14;;;;;;;7.90;1.90;;;;;;;;;;5070378;28;20678;-83
2024/01/27 06:03:43;;;;;;;6.88;1.98;;;;;;;;;;5085700;28;20175;-83
2024/01/27 06:06:10;;;;;;;3.72;1.73;;;;;;;;;;5087789;28;20815;-82
2024/01/27 06:08:36;;;;;;;7.90;3.00;;;;;;;;;;5093026;28;20056;-83
2024/01/27 06:11:03;;;;;;;6.38;2.08;;;;;;;;;;5091038;28;20036;-83
2024/01/27 06:13:29;;;;;;;4.38;1.77;;;;;;;;;;5077027;28;20050;-83
2024/01/27 06:15:55;;;;;;;7.75;2.33;;;;;;;;;;5094899;28;20036;-83
2024/01/27 06:18:21;;;;;;;8.50;2.72;;;;;;;;;;5082634;28;20039;-83
2024/01/27 06:20:47;;;;;;;8.63;2.60;;;;;;;;;;5103867;28;20040;-83
2024/01/27 06:23:13;;;;;;;7.00;2.78;;;;;;;;;;5109471;28;20051;-83
2024/01/27 06:25:40;;;;;;;6.72;2.72;;;;;;;;;;5108199;28;20038;-83
2024/01/27 06:28:06;;;;;;;5.65;2.42;;;;;;;;;;5099563;28;20032;-83
2024/01/27 06:30:32;;;;;;;6.30;2.03;;;;;;;;;;5089685;28;20066;-83
2024/01/27 06:32:58;;;;;;;7.10;2.60;;;;;;;;;;5073319;28;20036;-84
2024/01/27 06:35:24;;;;;;;9.43;3.25;;;;;;;;;;5092001;28;20062;-82
2024/01/27 06:37:50;;;;;;;7.82;2.78;;;;;;;;;;5092816;28;20040;-80
2024/01/27 06:40:16;;;;;;;8.98;3.17;;;;;;;;;;5093992;28;20055;-82
2024/01/27 06:42:42;;;;;;;9.10;2.13;;;;;;;;;;5077999;28;20040;-82
2024/01/27 06:45:08;;;;;;;4.82;2.30;;;;;;;;;;5095656;28;20489;-84
2024/01/27 06:47:34;;;;;;;5.95;2.35;;;;;;;;;;5078111;28;20039;-83
2024/01/27 06:50:00;;;;;;;10.55;3.40;;;;;;;;;;5096166;28;20404;-82
2024/01/27 06:52:26;;;;;;;6.43;2.75;;;;;;;;;;5077873;28;20040;-82
2024/01/27 06:54:52;;;;;;;6.85;2.97;;;;;;;;;;5093497;28;20043;-81
2024/01/27 06:57:20;;;;;;;5.65;2.30;;;;;;;;;;5079027;28;20040;-82
2024/01/27 06:59:46;;;;;;;8.10;3.30;;;;;;;;;;5092167;28;20054;-82
2024/01/27 07:02:14;;;;;;;7.40;2.90;;;;;;;;;;5093551;28;20081;-82
2024/01/27 07:04:40;;;;;;;3.67;2.13;;;;;;;;;;5093327;28;20476;-83
2024/01/27 07:07:06;;;;;;;7.25;3.50;;;;;;;;;;5093642;28;20078;-83
2024/01/27 07:09:32;;;;;;;10.23;3.42;;;;;;;;;;5093290;28;20048;-82
2024/01/27 07:11:57;;;;;;;9.63;4.13;;;;;;;;;;5092366;28;20078;-83
2024/01/27 07:14:23;;;;;;;5.15;2.70;;;;;;;;;;5093266;28;20043;-82
2024/01/27 07:16:49;;;;;;;10.18;2.90;;;;;;;;;;5094329;28;20047;-83
2024/01/27 07:19:16;;;;;;;7.40;3.00;;;;;;;;;;5126989;27;20054;-83
2024/01/27 07:21:42;;;;;;;4.75;2.58;;;;;;;;;;5073721;28;20399;-82
2024/01/27 07:24:09;;;;;;;9.38;3.35;;;;;;;;;;5077700;28;20074;-82
2024/01/27 07:26:35;;;;;;;9.15;2.92;;;;;;;;;;5090966;28;20553;-83
2024/01/27 07:29:01;;;;;;;6.43;2.47;;;;;;;;;;5091760;28;20111;-83
2024/01/27 07:31:27;;;;;;;4.07;2.38;;;;;;;;;;5073715;28;20048;-83
2024/01/27 07:33:53;;;;;;;6.70;2.95;;;;;;;;;;5087564;28;20047;-83
2024/01/27 07:36:19;;;;;;;7.20;2.55;;;;;;;;;;5087390;28;20044;-83
2024/01/27 07:38:45;;;;;;;4.60;2.75;;;;;;;;;;5089133;28;20032;-82
2024/01/27 07:41:11;;;;;;;12.43;3.22;;;;;;;;;;5090106;28;20205;-84
2024/01/27 07:43:37;;;;;;;10.30;3.47;;;;;;;;;;5086153;28;20028;-81
2024/01/27 07:46:03;;;;;;;7.38;3.65;;;;;;;;;;5086037;28;20381;-83
2024/01/27 07:48:29;;;;;;;7.30;2.67;;;;;;;;;;5087308;28;20044;-83
2024/01/27 07:50:56;;;;;;;6.85;2.80;;;;;;;;;;5088069;28;20046;-83
2024/01/27 07:53:22;;;;;;;8.18;2.90;;;;;;;;;;5091559;28;20075;-83
2024/01/27 07:55:48;;;;;;;8.70;3.55;;;;;;;;;;5086197;28;20067;-82
2024/01/27 07:58:14;;;;;;;5.35;2.25;;;;;;;;;;5088296;28;20074;-85
2024/01/27 08:00:40;;;;;;;9.40;3.00;;;;;;;;;;5080843;28;20036;-84
2024/01/27 08:03:06;;;;;;;5.72;2.72;;;;;;;;;;5089049;28;20485;-84
2024/01/27 08:05:32;;;;;;;6.18;2.35;;;;;;;;;;5090165;28;20086;-84
2024/01/27 08:07:58;;;;;;;6.45;2.50;;;;;;;;;;5091742;28;20044;-83
2024/01/27 08:10:25;;;;;;;6.80;2.45;;;;;;;;;;5091426;28;20051;-84
2024/01/27 08:12:51;;;;;;;11.85;3.78;;;;;;;;;;5073674;28;20082;-83
2024/01/27 08:15:17;;;;;;;6.20;2.92;;;;;;;;;;5092016;28;20444;-84
2024/01/27 08:17:43;;;;;;;9.20;3.38;;;;;;;;;;5089218;28;20132;-84
2024/01/27 08:20:10;;;;;;;11.20;3.63;;;;;;;;;;5071643;28;20051;-83
2024/01/27 08:22:36;;;;;;;7.38;2.80;;;;;;;;;;5089592;28;20036;-83
2024/01/27 08:25:01;;;;;;;6.10;2.97;;;;;;;;;;5071551;28;20090;-84
2024/01/27 08:27:27;;;;;;;5.55;3.03;;;;;;;;;;5072292;28;20036;-83
2024/01/27 08:29:53;;;;;;;5.70;3.08;;;;;;;;;;5087420;28;20040;-83
2024/01/27 08:32:19;;;;;;;6.43;2.72;;;;;;;;;;5072293;28;20265;-84
2024/01/27 08:34:47;;;;;;;8.07;3.35;;;;;;;;;;5091130;28;20058;-83
2024/01/27 08:37:18;;;;;;;8.38;4.10;;;;;;;;;;5089987;28;20078;-85
2024/01/27 08:39:45;;;;;;;7.57;3.92;;;;;;;;;;5085851;28;20040;-83
2024/01/27 08:42:11;;;;;;;15.13;5.35;;;;;;;;;;5093295;28;20515;-84
2024/01/27 08:44:37;;;;;;;13.77;4.90;;;;;;;;;;5089556;28;20055;-84
2024/01/27 08:47:03;;;;;;;8.73;4.15;;;;;;;;;;5093255;28;20051;-84
2024/01/27 08:49:29;;;;;;;7.80;3.47;;;;;;;;;;5090375;28;20718;-84
2024/01/27 08:51:55;;;;;;;12.00;4.03;;;;;;;;;;5088717;28;20480;-84
2024/01/27 08:54:22;;;;;;;8.80;3.17;;;;;;;;;;5089638;28;20040;-84
2024/01/27 08:56:48;;;;;;;6.38;3.83;;;;;;;;;;5082961;28;20135;-84
2024/01/27 08:59:14;;;;;;;10.10;3.92;;;;;;;;;;5085169;28;20111;-85
2024/01/27 09:01:40;;;;;;;12.93;4.75;;;;;;;;;;5084251;28;20131;-84
2024/01/27 09:04:06;;;;;;;8.48;4.60;;;;;;;;;;5087016;28;20044;-84
2024/01/27 09:06:32;;;;;;;10.05;4.85;;;;;;;;;;5088554;28;20097;-85
2024/01/27 09:08:58;;;;;;;10.00;4.88;;;;;;;;;;5089431;28;20500;-85
2024/01/27 09:11:27;;;;;;;6.70;3.70;;;;;;;;;;5089094;28;20044;-84
2024/01/27 09:13:53;;;;;;;18.38;5.38;;;;;;;;;;5085479;28;20137;-82
2024/01/27 09:16:19;;;;;;;7.30;3.90;;;;;;;;;;5085438;28;20067;-84
2024/01/27 09:18:45;;;;;;;10.93;4.72;;;;;;;;;;5088533;28;20131;-83
2024/01/27 09:21:11;;;;;;;7.35;3.67;;;;;;;;;;5086896;28;20044;-85
2024/01/27 09:23:37;;;;;;;10.30;5.32;;;;;;;;;;5083477;28;20493;-85
2024/01/27 09:26:06;;;;;;;3.13;2.85;;;;;;;;;;5067843;28;20067;-86
2024/01/27 09:28:33;;;;;;;6.95;4.50;;;;;;;;;;5096785;28;20110;-85
2024/01/27 09:30:59;;;;;;;7.93;3.83;;;;;;;;;;5097431;28;20044;-85
2024/01/27 09:33:24;;;;;;;9.63;4.72;;;;;;;;;;5082148;28;20404;-85
2024/01/27 09:35:50;;;;;;;11.98;4.43;;;;;;;;;;5102604;28;20036;-85
2024/01/27 09:38:17;;;;;;;13.30;6.60;;;;;;;;;;5072729;28;20051;-84
2024/01/27 09:40:44;;;;;;;9.85;4.95;;;;;;;;;;5069762;28;20070;-83
2024/01/27 09:43:12;;;;;;;8.23;4.50;;;;;;;;;;5087228;28;20127;-84
2024/01/27 09:45:38;;;;;;;17.52;5.93;;;;;;;;;;5085808;28;20028;-84
2024/01/27 09:48:05;;;;;;;13.32;6.88;;;;;;;;;;5086554;28;20048;-83
2024/01/27 09:50:31;;;;;;;17.83;7.50;;;;;;;;;;5088534;28;20099;-83
2024/01/27 09:52:57;;;;;;;10.75;4.45;;;;;;;;;;5086993;28;20055;-84
2024/01/27 09:55:23;;;;;;;7.78;3.38;;;;;;;;;;5090078;28;20036;-83
2024/01/27 09:57:49;;;;;;;6.93;4.82;;;;;;;;;;5088709;28;20071;-83
2024/01/27 10:00:16;;;;;;;7.85;2.92;;;;;;;;;;5087175;28;20036;-83
2024/01/27 10:02:43;;;;;;;2.75;2.55;;;;;;;;;;5085402;28;20066;-84
2024/01/27 10:05:09;;;;;;;9.35;5.70;;;;;;;;;;5089076;28;20036;-83
2024/01/27 10:07:35;;;;;;;7.40;4.57;;;;;;;;;;5089489;28;20061;-83
2024/01/27 10:10:01;;;;;;;8.50;3.28;;;;;;;;;;5090910;28;20456;-83
2024/01/27 10:12:29;;;;;;;7.97;4.05;;;;;;;;;;5091930;28;20078;-84
2024/01/27 10:14:55;;;;;;;11.88;4.60;;;;;;;;;;5090227;28;20604;-83
2024/01/27 10:17:22;;;;;;;10.23;4.93;;;;;;;;;;5087284;28;20043;-84
2024/01/27 10:20:00;;;;;;;5.45;3.08;;;;;;;;;;5088277;28;20094;-84
2024/01/27 10:22:27;;;;;;;12.73;5.68;;;;;;;;;;5089442;28;20544;-83
2024/01/27 10:24:53;;;;;;;11.85;5.85;;;;;;;;;;5088782;28;20032;-84
2024/01/27 10:27:19;;;;;;;5.68;2.67;;;;;;;;;;5088163;28;20040;-84
2024/01/27 10:29:55;;;;;;;8.25;4.40;;;;;;;;;;5087883;28;20180;-84
2024/01/27 10:32:24;;;;;;;5.25;2.85;;;;;;;;;;5088337;28;20048;-84
2024/01/27 10:35:03;;;;;;;13.23;6.32;;;;;;;;;;5089154;28;20048;-84
2024/01/27 10:37:29;;;;;;;7.50;3.85;;;;;;;;;;5087158;28;20047;-83
2024/01/27 10:40:03;;;;;;;16.90;6.10;;;;;;;;;;5088902;28;20047;-84
2024/01/27 10:42:32;;;;;;;11.93;5.85;;;;;;;;;;5087913;28;20071;-83
2024/01/27 10:45:01;;;;;;;8.82;4.53;;;;;;;;;;5086323;28;20043;-84
2024/01/27 10:47:28;;;;;;;11.50;4.50;;;;;;;;;;5085631;28;20100;-84
2024/01/27 10:49:56;;;;;;;13.32;5.10;;;;;;;;;;5086723;28;20040;-85
2024/01/27 10:52:27;;;;;;;11.95;6.40;;;;;;;;;;5086636;28;20055;-83
2024/01/27 10:54:54;;;;;;;11.02;4.93;;;;;;;;;;5093121;28;20074;-84
2024/01/27 10:57:20;;;;;;;9.40;5.00;;;;;;;;;;5090772;28;20130;-83
2024/01/27 10:59:48;;;;;;;7.13;3.17;;;;;;;;;;5091941;28;20036;-83
2024/01/27 11:02:14;;;;;;;7.15;3.72;;;;;;;;;;5092428;28;20046;-83
2024/01/27 11:04:41;;;;;;;2.15;1.98;;;;;;;;;;5091778;28;20448;-84
2024/01/27 11:07:07;;;;;;;11.40;4.88;;;;;;;;;;5092924;28;20074;-83
2024/01/27 11:09:34;;;;;;;7.15;3.58;;;;;;;;;;5088344;28;20068;-83
2024/01/27 11:12:02;;;;;;;5.45;3.72;;;;;;;;;;5090841;28;20097;-83
2024/01/27 11:14:28;;;;;;;9.43;4.68;;;;;;;;;;5072824;28;20055;-84
2024/01/27 11:16:57;;;;;;;9.38;4.68;;;;;;;;;;5086858;28;20067;-84
2024/01/27 11:19:24;;;;;;;9.05;3.38;;;;;;;;;;5087972;28;20089;-84
2024/01/27 11:22:03;;;;;;;5.18;3.45;;;;;;;;;;5087715;28;20392;-84
2024/01/27 11:24:29;;;;;;;15.52;5.32;;;;;;;;;;5088558;28;20492;-86
2024/01/27 11:27:06;;;;;;;12.63;4.82;;;;;;;;;;5072791;28;20071;-84
2024/01/27 11:29:32;;;;;;;8.18;2.45;;;;;;;;;;5090681;28;20043;-85
2024/01/27 11:32:04;;;;;;;10.52;4.10;;;;;;;;;;5089461;28;20429;-85
2024/01/27 11:34:45;;;;;;;14.38;5.05;;;;;;;;;;5088661;28;20091;-84
2024/01/27 11:37:15;;;;;;;11.13;4.63;;;;;;;;;;5088993;28;20064;-85
2024/01/27 11:39:41;;;;;;;5.63;2.63;;;;;;;;;;5072139;28;20050;-85
2024/01/27 11:42:08;;;;;;;11.77;2.85;;;;;;;;;;5090771;28;20449;-84
2024/01/27 11:44:34;;;;;;;9.52;3.20;;;;;;;;;;5090004;28;20033;-84
2024/01/27 11:47:00;;;;;;;7.65;2.97;;;;;;;;;;5086594;28;20040;-84
2024/01/27 11:49:27;;;;;;;13.00;3.92;;;;;;;;;;5090517;28;20040;-83
2024/01/27 11:51:53;;;;;;;11.70;3.47;;;;;;;;;;5073974;28;20058;-84
2024/01/27 11:54:19;;;;;;;15.00;4.55;;;;;;;;;;5087137;28;20044;-86
2024/01/27 11:56:46;;;;;;;8.20;2.83;;;;;;;;;;5088083;28;20497;-85
2024/01/27 11:59:12;;;;;;;5.50;3.22;;;;;;;;;;5089115;28;20396;-84
2024/01/27 12:01:38;;;;;;;2.90;1.25;;;;;;;;;;5089873;28;20068;-84
2024/01/27 12:04:08;;;;;;;8.38;2.88;;;;;;;;;;5089278;28;20090;-84
2024/01/27 12:06:38;;;;;;;8.32;3.75;;;;;;;;;;5089633;28;20442;-84
2024/01/27 12:09:11;;;;;;;9.00;2.05;;;;;;;;;;5088137;28;20044;-88
2024/01/27 12:11:39;;;;;;;7.45;2.40;;;;;;;;;;5087118;28;20052;-86
2024/01/27 12:14:04;;;;;;;4.80;2.28;;;;;;;;;;5069393;28;20043;-85
2024/01/27 12:16:31;;;;;;;8.38;2.53;;;;;;;;;;5069029;28;20040;-87
2024/01/27 12:18:57;;;;;;;10.75;3.75;;;;;;;;;;5088238;28;20044;-84
2024/01/27 12:21:23;;;;;;;9.05;2.80;;;;;;;;;;5089189;28;20044;-83
2024/01/27 12:23:59;;;;;;;2.25;1.45;;;;;;;;;;5092670;28;20048;-84
2024/01/27 12:26:25;;;;;;;5.13;2.38;;;;;;;;;;5089248;28;20036;-84
2024/01/27 12:28:51;;;;;;;13.13;3.78;;;;;;;;;;5090138;28;20409;-83
2024/01/27 12:31:18;;;;;;;9.70;3.95;;;;;;;;;;5089807;28;20387;-84
2024/01/27 12:33:51;;;;;;;3.50;1.88;;;;;;;;;;5090584;28;20032;-84
2024/01/27 12:36:18;;;;;;;6.32;2.30;;;;;;;;;;5090530;28;20040;-84
2024/01/27 12:38:47;;;;;;;5.30;2.63;;;;;;;;;;5088525;28;20177;-84
2024/01/27 12:41:13;;;;;;;12.25;3.67;;;;;;;;;;5073309;28;20206;-84
2024/01/27 12:43:39;;;;;;;9.52;3.78;;;;;;;;;;5089019;28;20126;-83
2024/01/27 12:46:05;;;;;;;7.38;3.42;;;;;;;;;;5088178;28;20032;-84
2024/01/27 12:48:31;;;;;;;5.00;1.90;;;;;;;;;;5099500;28;20036;-83
2024/01/27 12:50:57;;;;;;;5.30;3.25;;;;;;;;;;5073184;28;20050;-83
2024/01/27 12:53:23;;;;;;;3.63;1.75;;;;;;;;;;5092329;28;20040;-83
2024/01/27 12:55:49;;;;;;;6.10;3.20;;;;;;;;;;5096723;28;20082;-83
2024/01/27 12:58:15;;;;;;;10.20;2.70;;;;;;;;;;5091696;28;20083;-83
2024/01/27 13:00:42;;;;;;;5.20;2.50;;;;;;;;;;5088851;28;20036;-83
2024/01/27 13:03:08;;;;;;;9.75;2.80;;;;;;;;;;5089252;28;20040;-83
2024/01/27 13:05:34;;;;;;;11.82;3.53;;;;;;;;;;5092932;28;20432;-83
2024/01/27 13:08:04;;;;;;;5.13;2.35;;;;;;;;;;5105177;28;20082;-85
2024/01/27 13:10:33;;;;;;;2.70;2.05;;;;;;;;;;5095225;28;20121;-84
2024/01/27 13:12:59;;;;;;;9.77;3.78;;;;;;;;;;5088664;28;20040;-84
2024/01/27 13:15:26;;;;;;;6.95;2.45;;;;;;;;;;5088855;28;20556;-84
2024/01/27 13:17:53;;;;;;;8.80;3.40;;;;;;;;;;5088923;28;20449;-83
2024/01/27 13:20:19;;;;;;;6.93;3.03;;;;;;;;;;5088365;28;20101;-83
2024/01/27 13:22:45;;;;;;;8.00;3.20;;;;;;;;;;5090693;28;20566;-83
2024/01/27 13:25:11;;;;;;;4.90;2.47;;;;;;;;;;5089356;28;20123;-83
2024/01/27 13:27:37;;;;;;;2.67;1.77;;;;;;;;;;5070248;28;20032;-83
2024/01/27 13:30:03;;;;;;;13.05;3.35;;;;;;;;;;5087994;28;20097;-84
2024/01/27 13:32:29;;;;;;;8.05;3.20;;;;;;;;;;5088253;28;20419;-83
2024/01/27 13:34:55;;;;;;;8.82;3.00;;;;;;;;;;5088332;28;20036;-83
2024/01/27 13:37:22;;;;;;;11.30;3.42;;;;;;;;;;5090356;28;20139;-83
2024/01/27 13:39:48;;;;;;;9.93;2.78;;;;;;;;;;5089892;28;20060;-83
2024/01/27 13:42:14;;;;;;;10.18;3.05;;;;;;;;;;5090671;28;20032;-83
2024/01/27 13:44:40;;;;;;;8.10;2.45;;;;;;;;;;5087204;28;20504;-83
2024/01/27 13:47:06;;;;;;;5.40;2.60;;;;;;;;;;5088301;28;20123;-83
2024/01/27 13:49:33;;;;;;;19.25;3.42;;;;;;;;;;5087564;28;20036;-83
2024/01/27 13:51:59;;;;;;;9.65;4.53;;;;;;;;;;5088186;28;20373;-83
2024/01/27 13:54:25;;;;;;;4.65;1.80;;;;;;;;;;5086917;28;20161;-82
2024/01/27 13:56:51;;;;;;;9.57;3.45;;;;;;;;;;5086685;28;20420;-82
2024/01/27 13:59:17;;;;;;;7.43;2.50;;;;;;;;;;5090089;28;20039;-83
2024/01/27 14:01:43;;;;;;;6.65;2.75;;;;;;;;;;5086236;28;20044;-83
2024/01/27 14:04:09;;;;;;;6.60;3.20;;;;;;;;;;5088002;28;20731;-83
2024/01/27 14:06:35;;;;;;;7.18;2.10;;;;;;;;;;5082158;28;20036;-82
2024/01/27 14:09:02;;;;;;;9.07;2.97;;;;;;;;;;5081834;28;20076;-83
2024/01/27 14:11:28;;;;;;;9.40;2.85;;;;;;;;;;5085261;28;20052;-82
2024/01/27 14:13:54;;;;;;;13.25;4.43;;;;;;;;;;5091797;28;20052;-82
2024/01/27 14:16:20;;;;;;;8.48;2.83;;;;;;;;;;5091108;28;20038;-82
2024/01/27 14:18:46;;;;;;;10.18;2.60;;;;;;;;;;5085968;28;20032;-82
2024/01/27 14:21:12;;;;;;;5.97;2.22;;;;;;;;;;5091367;28;20487;-82
2024/01/27 14:23:38;;;;;;;7.85;2.53;;;;;;;;;;5086513;28;20039;-83
2024/01/27 14:26:07;;;;;;;5.53;2.17;;;;;;;;;;5086369;28;20043;-82
2024/01/27 14:28:33;;;;;;;9.05;3.15;;;;;;;;;;5093732;28;20071;-82
2024/01/27 14:30:59;;;;;;;4.45;2.60;;;;;;;;;;5099614;28;20149;-82
2024/01/27 14:33:25;;;;;;;6.20;2.92;;;;;;;;;;5100264;28;20385;-81
2024/01/27 14:35:51;;;;;;;6.53;2.13;;;;;;;;;;5099129;28;20043;-81